createdAt,value
2022-11-15T00:00:11.256Z,30.80
2022-11-15T00:05:36.190Z,31.10
2022-11-15T00:11:01.396Z,28.70
2022-11-15T00:16:22.518Z,31.00
2022-11-15T00:21:43.231Z,30.70
2022-11-15T00:27:07.870Z,33.20
2022-11-15T00:32:33.708Z,27.80
2022-11-15T00:37:54.099Z,32.10
2022-11-15T00:43:14.347Z,30.90
2022-11-15T00:48:35.224Z,30.20
2022-11-15T00:53:55.740Z,30.80
2022-11-15T00:59:16.660Z,32.90
2022-11-15T01:04:37.180Z,33.00
2022-11-15T01:09:57.361Z,31.50
2022-11-15T01:15:17.726Z,32.10
2022-11-15T01:20:44.617Z,29.70
2022-11-15T01:26:07.116Z,29.70
2022-11-15T01:31:27.741Z,31.50
2022-11-15T01:36:48.455Z,29.50
2022-11-15T01:42:14.511Z,30.30
2022-11-15T01:47:52.523Z,30.70
2022-11-15T01:53:13.709Z,31.20
2022-11-15T01:58:35.188Z,32.40
2022-11-15T02:04:00.823Z,28.90
2022-11-15T02:09:21.694Z,33.40
2022-11-15T02:14:45.544Z,32.50
2022-11-15T02:20:41.674Z,34.50
2022-11-15T02:26:30.364Z,38.70
2022-11-15T02:32:02.969Z,33.90
2022-11-15T02:37:43.750Z,34.70
2022-11-15T02:43:32.326Z,33.90
2022-11-15T02:48:53.550Z,36.40
2022-11-15T02:54:19.186Z,53.30
2022-11-15T03:00:04.892Z,63.90
2022-11-15T03:05:47.735Z,56.80
2022-11-15T03:11:10.189Z,45.60
2022-11-15T03:16:54.457Z,34.90
2022-11-15T03:22:25.622Z,39.50
2022-11-15T03:27:51.815Z,37.90
2022-11-15T03:33:12.798Z,36.00
2022-11-15T03:38:36.258Z,56.90
2022-11-15T03:44:12.267Z,32.60
2022-11-15T03:49:36.152Z,36.20
2022-11-15T03:54:58.184Z,62.00
2022-11-15T04:00:18.824Z,76.20
2022-11-15T04:05:39.228Z,71.00
2022-11-15T04:11:02.264Z,71.00
2022-11-15T04:16:23.220Z,29.80
2022-11-15T04:22:02.583Z,30.50
2022-11-15T04:27:23.187Z,36.50
2022-11-15T04:32:43.509Z,38.80
2022-11-15T04:38:06.275Z,32.80
2022-11-15T04:43:26.687Z,31.50
2022-11-15T04:48:47.538Z,32.20
2022-11-15T04:54:08.128Z,30.90
2022-11-15T04:59:28.739Z,32.30
2022-11-15T05:04:49.769Z,40.80
2022-11-15T05:10:10.769Z,41.60
2022-11-15T05:15:31.404Z,41.00
2022-11-15T05:20:51.558Z,37.30
2022-11-15T05:26:12.762Z,35.00
2022-11-15T05:31:33.259Z,32.50
2022-11-15T05:36:54.741Z,24.50
2022-11-15T05:42:16.850Z,28.30
2022-11-15T05:47:39.515Z,31.80
2022-11-15T05:53:05.177Z,57.80
2022-11-15T05:58:26.363Z,57.10
2022-11-15T06:03:46.690Z,55.40
2022-11-15T06:09:07.202Z,37.60
2022-11-15T06:14:37.371Z,46.20
2022-11-15T06:19:57.654Z,47.00
2022-11-15T06:25:18.164Z,42.70
2022-11-15T06:30:38.575Z,45.50
2022-11-15T06:36:08.622Z,37.90
2022-11-15T06:41:39.675Z,28.50
2022-11-15T06:47:00.396Z,28.60
2022-11-15T06:52:20.904Z,31.10
2022-11-15T06:57:52.174Z,31.00
2022-11-15T07:03:12.382Z,38.00
2022-11-15T07:08:33.310Z,38.70
2022-11-15T07:13:54.064Z,40.80
2022-11-15T07:19:14.539Z,41.30
2022-11-15T07:24:34.954Z,36.90
2022-11-15T07:29:55.609Z,44.30
2022-11-15T07:35:16.184Z,47.20
2022-11-15T07:40:36.902Z,53.60
2022-11-15T07:45:59.287Z,54.00
2022-11-15T07:51:21.214Z,77.60
2022-11-15T07:56:42.647Z,71.70
2022-11-15T08:02:03.671Z,66.60
2022-11-15T08:07:24.672Z,63.00
2022-11-15T08:12:45.355Z,57.60
2022-11-15T08:18:12.831Z,54.60
2022-11-15T08:23:33.683Z,62.70
2022-11-15T08:28:54.343Z,56.70
2022-11-15T08:34:14.766Z,55.90
2022-11-15T08:39:35.156Z,56.80
2022-11-15T08:44:56.139Z,54.70
2022-11-15T08:50:17.003Z,47.40
2022-11-15T08:55:39.097Z,47.00
2022-11-15T09:00:59.827Z,43.10
2022-11-15T09:06:20.291Z,43.90
2022-11-15T09:11:41.316Z,38.10
2022-11-15T09:17:02.539Z,37.40
2022-11-15T09:22:23.418Z,39.00
2022-11-15T09:27:53.814Z,29.30
2022-11-15T09:33:14.531Z,27.50
2022-11-15T09:38:35.986Z,25.00
2022-11-15T09:44:05.355Z,25.60
2022-11-15T09:49:44.574Z,25.70
2022-11-15T09:54:55.499Z,25.40
2022-11-15T10:00:47.599Z,23.80
2022-11-15T10:05:49.774Z,21.80
2022-11-15T10:11:22.733Z,24.20
2022-11-15T10:16:29.676Z,24.60
2022-11-15T10:22:05.756Z,24.40
2022-11-15T10:27:14.352Z,24.90
2022-11-15T10:32:21.799Z,24.90
2022-11-15T10:37:31.734Z,21.10
2022-11-15T10:42:33.642Z,22.60
2022-11-15T10:47:39.562Z,23.40
2022-11-15T10:52:47.858Z,22.30
2022-11-15T10:57:53.611Z,22.30
2022-11-15T11:03:08.340Z,20.80
2022-11-15T11:08:12.928Z,21.90
2022-11-15T11:13:16.864Z,19.80
2022-11-15T11:18:43.813Z,20.50
2022-11-15T11:23:59.648Z,19.30
2022-11-15T11:29:25.235Z,21.30
2022-11-15T11:34:39.062Z,20.20
2022-11-15T11:39:48.468Z,20.10
2022-11-15T11:44:59.562Z,21.90
2022-11-15T11:50:11.903Z,22.80
2022-11-15T11:55:19.080Z,21.60
2022-11-15T12:00:30.388Z,22.80
2022-11-15T12:06:30.833Z,23.90
2022-11-15T12:12:10.366Z,23.10
2022-11-15T12:17:13.395Z,23.70
2022-11-15T12:22:24.083Z,23.60
2022-11-15T12:27:48.136Z,24.30
2022-11-15T12:33:00.141Z,22.60
2022-11-15T12:38:02.681Z,23.90
2022-11-15T12:43:16.749Z,24.80
2022-11-15T12:48:18.638Z,23.70
2022-11-15T12:53:26.364Z,24.70
2022-11-15T12:58:40.405Z,24.10
2022-11-15T13:04:19.985Z,24.70
2022-11-15T13:09:31.059Z,25.00
2022-11-15T13:14:40.539Z,23.40
2022-11-15T13:19:42.384Z,24.60
2022-11-15T13:24:44.265Z,25.00
2022-11-15T13:29:46.070Z,26.90
2022-11-15T13:34:51.940Z,26.00
2022-11-15T13:39:54.611Z,22.70
2022-11-15T13:44:59.204Z,25.90
2022-11-15T13:50:09.633Z,28.40
2022-11-15T13:55:20.766Z,26.30
2022-11-15T14:00:48.917Z,24.90
2022-11-15T14:06:16.097Z,22.90
2022-11-15T14:11:20.933Z,23.30
2022-11-15T14:16:43.778Z,21.80
2022-11-15T14:22:16.207Z,22.30
2022-11-15T14:27:27.083Z,25.40
2022-11-15T14:32:31.565Z,26.00
2022-11-15T14:37:38.520Z,27.70
2022-11-15T14:42:40.398Z,27.40
2022-11-15T14:47:42.792Z,30.20
2022-11-15T14:52:45.121Z,28.20
2022-11-15T14:57:47.569Z,29.50
2022-11-15T15:02:51.523Z,41.10
2022-11-15T15:07:54.476Z,41.50
2022-11-15T15:12:56.472Z,40.00
2022-11-15T15:17:58.276Z,39.10
2022-11-15T15:23:00.158Z,37.60
2022-11-15T15:28:03.234Z,38.00
2022-11-15T15:33:05.105Z,39.20
2022-11-15T15:38:07.086Z,40.90
2022-11-15T15:43:10.316Z,37.30
2022-11-15T15:48:14.552Z,37.00
2022-11-15T15:53:16.917Z,42.00
2022-11-15T15:58:18.689Z,36.60
2022-11-15T16:03:20.506Z,35.20
2022-11-15T16:08:25.029Z,36.20
2022-11-15T16:13:26.986Z,37.00
2022-11-15T16:18:35.679Z,32.70
2022-11-15T16:23:38.056Z,40.80
2022-11-15T16:28:39.812Z,44.30
2022-11-15T16:33:41.573Z,54.60
2022-11-15T16:38:43.375Z,80.10
2022-11-15T16:43:46.926Z,119.20
2022-11-15T16:48:49.462Z,121.80
2022-11-15T16:53:51.528Z,93.90
2022-11-15T16:59:00.627Z,79.10
2022-11-15T17:04:16.578Z,85.90
2022-11-15T17:09:24.724Z,75.90
2022-11-15T17:14:26.683Z,92.50
2022-11-15T17:19:28.564Z,89.50
2022-11-15T17:24:30.439Z,119.30
2022-11-15T17:29:32.319Z,116.50
2022-11-15T17:34:34.194Z,111.20
2022-11-15T17:39:35.999Z,93.60
2022-11-15T17:44:37.949Z,77.30
2022-11-15T17:49:40.952Z,61.20
2022-11-15T17:54:42.828Z,57.20
2022-11-15T17:59:44.588Z,58.60
2022-11-15T18:04:46.481Z,64.60
2022-11-15T18:09:48.260Z,75.50
2022-11-15T18:14:50.077Z,80.60
2022-11-15T18:19:51.910Z,64.50
2022-11-15T18:24:53.781Z,58.90
2022-11-15T18:29:55.626Z,72.20
2022-11-15T18:34:57.395Z,58.50
2022-11-15T18:39:59.211Z,57.60
2022-11-15T18:45:02.014Z,108.80
2022-11-15T18:50:04.019Z,116.10
2022-11-15T18:55:05.899Z,92.40
2022-11-15T19:00:09.231Z,66.60
2022-11-15T19:05:11.004Z,57.00
2022-11-15T19:10:12.968Z,77.80
2022-11-15T19:15:14.921Z,98.40
2022-11-15T19:20:16.786Z,102.90
2022-11-15T19:25:19.031Z,102.90
2022-11-15T19:30:20.930Z,61.80
2022-11-15T19:35:22.784Z,56.30
2022-11-15T19:40:24.620Z,54.50
2022-11-15T19:45:26.441Z,55.10
2022-11-15T19:50:28.240Z,74.20
2022-11-15T19:55:30.184Z,66.90
2022-11-15T20:00:32.117Z,57.20
2022-11-15T20:05:33.946Z,56.10
2022-11-15T20:10:35.972Z,63.80
2022-11-15T20:15:37.796Z,72.30
2022-11-15T20:20:40.175Z,73.80
2022-11-15T20:25:47.067Z,92.70
2022-11-15T20:30:52.729Z,79.00
2022-11-15T20:35:54.881Z,79.50
2022-11-15T20:41:00.130Z,77.50
2022-11-15T20:46:02.619Z,66.20
2022-11-15T20:51:16.262Z,63.00
2022-11-15T20:56:20.198Z,85.50
2022-11-15T21:01:24.611Z,86.70
2022-11-15T21:06:27.651Z,82.10
2022-11-15T21:11:48.320Z,59.70
2022-11-15T21:16:50.607Z,67.70
2022-11-15T21:21:52.468Z,84.10
2022-11-15T21:26:54.773Z,82.40
2022-11-15T21:31:56.778Z,75.30
2022-11-15T21:36:59.039Z,74.00
2022-11-15T21:42:00.899Z,74.50
2022-11-15T21:52:28.027Z,80.70
2022-11-15T21:57:30.340Z,75.30
2022-11-15T22:02:32.239Z,78.70
2022-11-15T22:07:34.100Z,82.70
2022-11-15T22:12:40.605Z,70.60
2022-11-15T22:18:00.680Z,70.30
2022-11-15T22:23:02.913Z,68.10
2022-11-15T22:28:04.917Z,60.40
2022-11-15T22:33:07.015Z,73.00
2022-11-15T22:38:09.570Z,70.40
2022-11-15T22:43:13.573Z,73.60
2022-11-15T22:48:16.605Z,77.80
2022-11-15T22:53:19.421Z,74.60
2022-11-15T22:58:23.629Z,64.80
2022-11-15T23:03:27.103Z,69.40
2022-11-15T23:08:29.098Z,70.30
2022-11-15T23:13:33.052Z,67.20
2022-11-15T23:18:40.992Z,59.50
2022-11-15T23:23:42.878Z,57.50
2022-11-15T23:28:44.755Z,55.30
2022-11-15T23:33:58.890Z,54.00
2022-11-15T23:39:02.225Z,52.90
2022-11-15T23:44:04.665Z,54.50
2022-11-15T23:49:06.674Z,53.80
2022-11-15T23:54:09.140Z,56.70
2022-11-15T23:59:11.102Z,57.30
